Time;durP1;ratioP1;P1;durP2;ratioP2;P2;SDS_P1;SDS_P2;PMS_P1;PMS_P2;Temp;Humidity;BMP_temperature;BMP_pressure;BME280_temperature;BME280_humidity;BME280_pressure;Samples;Min_cycle;Max_cycle;Signal;HPM_P1;HPM_P2
2023/03/07 08:47:54;;;;;;;2.08;1.08;;;17.20;79.90;;;;;;5115361;27;20361;-48
2023/03/07 08:50:20;;;;;;;2.88;1.00;;;17.20;80.10;;;;;;5111626;28;20351;-46
2023/03/07 08:52:47;;;;;;;2.83;1.10;;;17.40;79.80;;;;;;5111741;28;20040;-45
2023/03/07 08:55:15;;;;;;;3.17;1.10;;;17.60;79.50;;;;;;5093164;28;20193;-43
2023/03/07 08:57:44;;;;;;;3.28;1.15;;;17.70;79.00;;;;;;5111553;28;20070;-48
2023/03/07 09:00:11;;;;;;;3.78;1.20;;;17.90;78.70;;;;;;5110800;28;20040;-42
2023/03/07 09:02:38;;;;;;;2.80;1.10;;;18.10;78.20;;;;;;5111041;28;20047;-42
2023/03/07 09:05:05;;;;;;;4.50;1.02;;;18.30;77.90;;;;;;5111953;28;20432;-45
2023/03/07 09:07:31;;;;;;;2.90;1.10;;;18.40;77.50;;;;;;5110596;28;20104;-46
2023/03/07 09:09:58;;;;;;;2.65;1.05;;;18.50;77.10;;;;;;5094025;28;20469;-40
2023/03/07 09:12:25;;;;;;;2.25;1.05;;;18.60;76.80;;;;;;5111488;28;20048;-41
2023/03/07 09:14:51;;;;;;;4.82;1.00;;;18.80;76.70;;;;;;5110522;28;20062;-41
2023/03/07 09:17:18;;;;;;;2.90;1.08;;;18.80;77.00;;;;;;5111586;28;20480;-43
2023/03/07 09:19:45;;;;;;;2.75;1.00;;;18.90;76.20;;;;;;5111253;28;20050;-44
2023/03/07 09:22:11;;;;;;;3.95;1.00;;;19.00;76.00;;;;;;5092567;28;20473;-49
2023/03/07 09:24:38;;;;;;;3.78;1.05;;;19.00;75.80;;;;;;5111403;28;20067;-42
2023/03/07 09:27:04;;;;;;;6.10;1.13;;;19.10;75.50;;;;;;5100311;28;20056;-41
2023/03/07 09:29:31;;;;;;;5.05;1.10;;;19.20;75.80;;;;;;5106190;28;20047;-46
2023/03/07 09:31:58;;;;;;;2.22;1.00;;;19.20;75.70;;;;;;5111344;28;20061;-40
2023/03/07 09:34:24;;;;;;;4.03;1.50;;;19.30;75.40;;;;;;5092031;28;20047;-45
2023/03/07 09:36:51;;;;;;;5.63;1.20;;;19.40;75.20;;;;;;5110250;28;20044;-51
2023/03/07 09:39:18;;;;;;;3.30;1.02;;;19.40;75.10;;;;;;5111136;28;20044;-45
2023/03/07 09:41:44;;;;;;;4.82;1.20;;;19.40;74.90;;;;;;5109712;28;20047;-41
2023/03/07 09:44:11;;;;;;;2.67;1.00;;;19.50;74.70;;;;;;5092670;28;20040;-41
2023/03/07 09:47:00;;;;;;;3.90;1.00;;;19.50;75.00;;;;;;5102433;28;20056;-44
2023/03/07 09:49:26;;;;;;;4.60;1.25;;;19.60;75.30;;;;;;5109739;28;20134;-40
2023/03/07 09:51:53;;;;;;;4.53;1.10;;;19.70;75.20;;;;;;5110245;28;20511;-44
2023/03/07 09:54:20;;;;;;;3.97;1.00;;;19.70;75.20;;;;;;5110085;28;20050;-40
2023/03/07 09:56:46;;;;;;;4.05;1.15;;;19.70;75.10;;;;;;5111006;28;20043;-40
2023/03/07 09:59:13;;;;;;;4.20;1.00;;;19.70;74.90;;;;;;5079302;28;20123;-39
2023/03/07 10:01:48;;;;;;;5.63;1.20;;;19.80;74.80;;;;;;5096181;28;20048;-40
2023/03/07 10:04:15;;;;;;;5.13;1.20;;;19.80;74.60;;;;;;5097047;28;20474;-42
2023/03/07 10:06:42;;;;;;;7.22;1.60;;;19.80;74.40;;;;;;5097048;28;20052;-41
2023/03/07 10:09:08;;;;;;;10.45;2.60;;;19.90;74.50;;;;;;5096224;28;20050;-41
2023/03/07 10:11:35;;;;;;;15.68;3.35;;;19.90;74.40;;;;;;5096876;28;20046;-42
2023/03/07 10:14:02;;;;;;;14.73;3.78;;;20.00;74.40;;;;;;5077194;28;20040;-42
2023/03/07 10:16:28;;;;;;;15.55;3.90;;;20.00;74.30;;;;;;5089652;28;20040;-38
2023/03/07 10:18:55;;;;;;;18.02;4.32;;;20.00;74.40;;;;;;5081629;28;20441;-39
2023/03/07 10:21:22;;;;;;;16.33;4.13;;;20.00;74.30;;;;;;5094705;28;20048;-41
2023/03/07 10:23:48;;;;;;;17.80;4.68;;;20.10;74.30;;;;;;5081621;28;20534;-39
2023/03/07 10:26:15;;;;;;;18.80;5.15;;;20.10;74.30;;;;;;5076485;28;20139;-42
2023/03/07 10:28:41;;;;;;;18.95;4.80;;;20.10;74.20;;;;;;5074736;28;20378;-39
2023/03/07 10:31:08;;;;;;;21.02;5.05;;;20.10;74.00;;;;;;5075991;28;20052;-37
2023/03/07 10:33:35;;;;;;;19.83;5.22;;;20.20;73.90;;;;;;5088806;28;20105;-39
2023/03/07 10:36:04;;;;;;;20.55;5.28;;;20.20;73.90;;;;;;5095122;28;20245;-40
2023/03/07 10:38:31;;;;;;;17.50;4.90;;;20.20;73.90;;;;;;5095990;28;20152;-39
2023/03/07 10:40:58;;;;;;;16.02;4.80;;;20.20;73.80;;;;;;5095158;28;20050;-42
2023/03/07 10:43:24;;;;;;;14.27;4.72;;;20.20;73.80;;;;;;5096069;28;20452;-44
2023/03/07 10:45:51;;;;;;;14.52;4.10;;;20.10;73.70;;;;;;5091531;28;20049;-42
2023/03/07 10:48:18;;;;;;;16.42;4.40;;;20.10;73.70;;;;;;5057078;28;20143;-42
2023/03/07 10:50:45;;;;;;;13.73;4.68;;;20.10;73.50;;;;;;5075257;28;20067;-38
2023/03/07 10:53:11;;;;;;;17.40;4.15;;;20.10;73.60;;;;;;5075335;28;20044;-42
2023/03/07 10:55:38;;;;;;;13.45;4.03;;;20.10;73.70;;;;;;5074839;28;20127;-39
2023/03/07 10:58:05;;;;;;;14.77;3.90;;;20.10;73.70;;;;;;5074960;28;20067;-42
2023/03/07 11:00:31;;;;;;;14.50;4.15;;;20.10;73.60;;;;;;5075258;28;20433;-37
2023/03/07 11:02:58;;;;;;;13.45;3.67;;;20.10;73.60;;;;;;5074652;28;20044;-40
2023/03/07 11:05:24;;;;;;;15.38;3.72;;;20.10;73.90;;;;;;5075799;28;20048;-36
2023/03/07 11:07:51;;;;;;;11.90;3.75;;;20.10;73.80;;;;;;5074311;28;20039;-36
2023/03/07 11:10:18;;;;;;;14.48;3.80;;;20.10;73.90;;;;;;5074541;28;20479;-39
2023/03/07 11:12:45;;;;;;;13.48;3.45;;;20.10;73.90;;;;;;5075290;28;20390;-43
2023/03/07 11:15:11;;;;;;;13.43;3.47;;;20.20;73.80;;;;;;5073722;28;20102;-46
2023/03/07 11:17:38;;;;;;;10.32;3.30;;;20.20;73.70;;;;;;5075626;28;20102;-44
2023/03/07 11:20:05;;;;;;;11.73;3.67;;;20.20;73.90;;;;;;5074691;28;20147;-39
2023/03/07 11:22:35;;;;;;;10.73;3.75;;;20.30;73.80;;;;;;5073809;28;20032;-42
2023/03/07 11:25:02;;;;;;;13.80;3.50;;;20.30;73.70;;;;;;5069362;28;20052;-45
2023/03/07 11:27:29;;;;;;;11.23;3.08;;;20.30;73.80;;;;;;5073940;28;20041;-40
2023/03/07 11:29:55;;;;;;;9.43;2.83;;;20.30;73.60;;;;;;5057174;28;20059;-40
2023/03/07 11:32:22;;;;;;;8.65;2.90;;;20.40;73.30;;;;;;5075394;28;20421;-46
2023/03/07 11:34:49;;;;;;;10.25;3.10;;;20.40;73.00;;;;;;5074337;28;20054;-39
2023/03/07 11:37:15;;;;;;;10.13;3.00;;;20.40;73.10;;;;;;5057172;28;20054;-40
2023/03/07 11:39:42;;;;;;;9.10;2.95;;;20.40;73.00;;;;;;5074110;28;20044;-40
2023/03/07 11:42:09;;;;;;;10.07;2.80;;;20.40;73.00;;;;;;5073736;28;20413;-38
2023/03/07 11:44:37;;;;;;;9.60;2.70;;;20.40;72.80;;;;;;5074490;28;20044;-52
2023/03/07 16:37:08;;;;;;;14.48;4.63;;;10.40;99.00;;;;;;5133034;27;20534;-84
2023/03/07 16:42:06;;;;;;;9.68;4.38;;;7.80;99.90;;;;;;5111530;28;20042;-82
2023/03/07 16:44:33;;;;;;;11.30;5.63;;;7.10;99.90;;;;;;5077502;28;20351;-81
2023/03/07 16:46:59;;;;;;;10.27;4.78;;;6.60;99.90;;;;;;5111970;28;20046;-81
2023/03/07 16:51:57;;;;;;;8.27;4.25;;;6.20;99.90;;;;;;5094130;28;20043;-80
2023/03/07 16:54:32;;;;;;;9.40;4.95;;;6.10;99.90;;;;;;5094529;28;20101;-81
2023/03/07 16:56:58;;;;;;;11.35;4.97;;;5.90;99.90;;;;;;5094139;28;20152;-82
2023/03/07 17:02:10;;;;;;;9.13;4.65;;;5.80;99.90;;;;;;5086546;28;20045;-83
2023/03/07 17:04:37;;;;;;;11.20;5.57;;;5.70;99.90;;;;;;5066864;28;20128;-83
2023/03/07 17:07:04;;;;;;;11.52;5.40;;;5.60;99.90;;;;;;5078614;28;20087;-81
2023/03/07 17:09:31;;;;;;;12.55;5.50;;;5.40;99.90;;;;;;5069117;28;20048;-82
2023/03/07 17:11:58;;;;;;;11.75;4.72;;;5.30;99.90;;;;;;5056678;28;20132;-84
2023/03/07 17:14:24;;;;;;;14.30;5.47;;;5.30;99.90;;;;;;5037247;28;20037;-84
2023/03/07 17:16:51;;;;;;;11.07;5.65;;;5.30;99.90;;;;;;5069620;28;20044;-83
2023/03/07 17:19:18;;;;;;;10.90;5.50;;;5.30;99.90;;;;;;5036323;28;20052;-84
2023/03/07 17:21:44;;;;;;;14.63;6.78;;;5.30;99.90;;;;;;5013183;28;20464;-83
2023/03/07 17:24:11;;;;;;;14.25;6.40;;;5.30;99.90;;;;;;5050591;28;20050;-83
2023/03/07 17:26:38;;;;;;;16.55;7.65;;;5.20;99.90;;;;;;5029799;28;20220;-81
2023/03/07 17:29:04;;;;;;;12.93;6.25;;;5.20;99.90;;;;;;5030091;28;20042;-83
2023/03/07 17:31:31;;;;;;;14.60;7.32;;;5.20;99.90;;;;;;5013661;28;20465;-82
2023/03/07 17:33:58;;;;;;;13.40;6.70;;;5.10;99.90;;;;;;5029825;28;20053;-82
2023/03/07 17:36:25;;;;;;;12.88;6.13;;;5.00;99.90;;;;;;5013403;28;20145;-82
2023/03/07 17:41:37;;;;;;;12.40;5.50;;;5.00;99.90;;;;;;5028737;28;20056;-82
2023/03/07 17:44:04;;;;;;;14.32;6.10;;;4.90;99.90;;;;;;5030017;28;20061;-82
2023/03/07 17:46:30;;;;;;;11.90;5.55;;;4.80;99.90;;;;;;5017908;28;20056;-81
2023/03/07 17:48:57;;;;;;;12.32;5.57;;;4.80;99.90;;;;;;5007748;28;20122;-83
2023/03/07 17:51:24;;;;;;;11.50;5.47;;;4.70;99.90;;;;;;5036369;28;20425;-82
2023/03/07 17:53:51;;;;;;;11.18;5.70;;;4.60;99.90;;;;;;5023082;28;20037;-82
2023/03/07 17:56:17;;;;;;;11.88;5.93;;;4.60;99.90;;;;;;5037208;28;20728;-83
2023/03/07 17:58:44;;;;;;;12.70;5.80;;;4.50;99.90;;;;;;5019415;28;20048;-82
2023/03/07 18:01:13;;;;;;;13.77;5.63;;;4.50;99.90;;;;;;5033204;28;20041;-83
2023/03/07 18:03:40;;;;;;;13.38;5.97;;;4.40;99.90;;;;;;5035741;28;20049;-83
2023/03/07 18:06:07;;;;;;;11.13;5.50;;;4.30;99.90;;;;;;4799645;28;382598;-82
2023/03/07 18:08:33;;;;;;;13.43;5.60;;;4.20;99.90;;;;;;4766895;28;533930;-84
2023/03/07 18:11:00;;;;;;;12.02;5.47;;;4.20;99.90;;;;;;5035536;28;20474;-82
2023/03/07 18:13:27;;;;;;;15.38;5.82;;;4.20;99.90;;;;;;5036215;28;20083;-84
2023/03/07 18:15:53;;;;;;;15.82;6.15;;;4.20;99.90;;;;;;5014848;28;20045;-83
2023/03/07 18:18:22;;;;;;;14.45;6.55;;;4.20;99.90;;;;;;5016270;28;20030;-83
2023/03/07 18:20:49;;;;;;;16.52;7.47;;;4.20;99.90;;;;;;5015886;28;20049;-84
2023/03/07 18:23:15;;;;;;;14.23;6.53;;;4.10;99.90;;;;;;5032691;28;20046;-83
2023/03/07 18:25:42;;;;;;;17.58;6.55;;;4.10;99.90;;;;;;5035329;28;20045;-82
2023/03/07 18:28:10;;;;;;;17.15;6.60;;;4.10;99.90;;;;;;5036942;28;20041;-83
2023/03/07 18:30:36;;;;;;;14.68;6.35;;;4.00;99.90;;;;;;5034857;28;20530;-85
2023/03/07 18:33:03;;;;;;;15.73;6.85;;;3.90;99.90;;;;;;5025100;28;20046;-84
2023/03/07 18:35:30;;;;;;;13.88;6.53;;;3.90;99.90;;;;;;5022049;28;20463;-85
2023/03/07 18:37:56;;;;;;;17.35;6.93;;;3.80;99.90;;;;;;5058580;28;20044;-85
2023/03/07 18:40:23;;;;;;;17.65;7.60;;;3.70;99.90;;;;;;5054722;28;20148;-84
2023/03/07 18:42:50;;;;;;;18.27;7.05;;;3.60;99.90;;;;;;5019507;28;20045;-81
2023/03/07 18:45:16;;;;;;;19.70;7.80;;;3.50;99.90;;;;;;5036053;28;20056;-82
2023/03/07 18:47:43;;;;;;;18.48;7.47;;;3.50;99.90;;;;;;5042812;28;20048;-81
2023/03/07 18:53:13;;;;;;;17.15;7.57;;;3.40;99.90;;;;;;5049209;28;20037;-82
2023/03/07 18:55:40;;;;;;;15.23;6.82;;;3.30;99.90;;;;;;5035253;28;20064;-81
2023/03/07 19:00:56;;;;;;;16.90;7.03;;;3.20;99.90;;;;;;5053579;28;20057;-84
2023/03/07 19:03:23;;;;;;;15.48;7.00;;;3.20;99.90;;;;;;5052951;28;20041;-84
2023/03/07 19:05:49;;;;;;;16.60;7.78;;;3.10;99.90;;;;;;5059643;28;20057;-83
2023/03/07 19:11:05;;;;;;;14.73;6.63;;;3.00;99.90;;;;;;5059993;28;20045;-85
2023/03/07 19:13:32;;;;;;;16.42;7.40;;;2.90;99.90;;;;;;5040796;28;20083;-85
2023/03/07 19:16:01;;;;;;;15.27;6.72;;;2.80;99.90;;;;;;5041080;28;20088;-85
2023/03/07 19:21:13;;;;;;;17.88;7.60;;;2.70;99.90;;;;;;5031357;28;20399;-88
2023/03/07 19:23:40;;;;;;;20.67;8.05;;;2.60;99.90;;;;;;5038617;28;20521;-88
2023/03/07 19:26:07;;;;;;;18.67;7.65;;;2.60;99.90;;;;;;5035283;28;20424;-89
2023/03/07 19:32:09;;;;;;;17.55;7.43;;;2.60;99.90;;;;;;5035854;28;20040;-88
2023/03/07 19:34:39;;;;;;;15.57;7.10;;;2.50;99.90;;;;;;5034757;28;20056;-88
2023/03/07 19:37:08;;;;;;;17.90;8.20;;;2.40;99.90;;;;;;5018628;28;20059;-88
2023/03/07 19:39:35;;;;;;;20.38;8.07;;;2.40;99.90;;;;;;5034938;28;20459;-89
2023/03/07 19:42:03;;;;;;;20.02;8.93;;;2.40;99.90;;;;;;5018293;28;20541;-89
2023/03/07 19:44:29;;;;;;;22.50;9.60;;;2.30;99.90;;;;;;5034703;28;20045;-89
2023/03/07 19:46:56;;;;;;;21.20;8.95;;;2.30;99.90;;;;;;5018346;28;20152;-89
2023/03/07 19:52:51;;;;;;;18.55;8.55;;;2.20;99.90;;;;;;5035442;28;20066;-89
2023/03/07 19:55:18;;;;;;;20.83;8.32;;;2.20;99.90;;;;;;5034514;28;20456;-90
2023/03/07 19:57:45;;;;;;;17.05;7.80;;;2.10;99.90;;;;;;5051513;28;20072;-89
2023/03/07 20:00:12;;;;;;;22.20;8.90;;;2.10;99.90;;;;;;5050832;28;20388;-89
2023/03/07 20:02:39;;;;;;;18.48;8.30;;;2.00;99.90;;;;;;5032402;28;20163;-89
2023/03/07 20:05:07;;;;;;;18.60;8.15;;;2.00;99.90;;;;;;5034282;28;20111;-88
2023/03/07 20:07:33;;;;;;;19.67;7.85;;;2.00;99.90;;;;;;5068193;28;20451;-88
2023/03/07 20:10:00;;;;;;;14.60;7.25;;;1.80;99.90;;;;;;5032881;28;20080;-88
2023/03/07 20:12:27;;;;;;;18.88;7.65;;;1.70;99.90;;;;;;5026813;28;20044;-89
2023/03/07 20:14:54;;;;;;;19.00;8.13;;;1.60;99.90;;;;;;5038017;28;20057;-90
2023/03/07 20:17:21;;;;;;;17.45;7.47;;;1.50;99.90;;;;;;5021883;28;20041;-88
2023/03/07 20:23:03;;;;;;;21.83;9.05;;;1.40;99.90;;;;;;5035914;28;20040;-89
2023/03/07 20:25:32;;;;;;;26.40;8.93;;;1.40;99.90;;;;;;5020555;28;20041;-89
2023/03/07 20:28:01;;;;;;;22.65;9.30;;;1.40;99.90;;;;;;5020636;28;20108;-89
2023/03/07 20:30:31;;;;;;;26.05;9.35;;;1.40;99.90;;;;;;5036198;28;20136;-88
2023/03/07 20:32:57;;;;;;;20.48;8.30;;;1.30;99.90;;;;;;5038023;28;20046;-88
2023/03/07 20:35:24;;;;;;;23.05;9.35;;;1.30;99.90;;;;;;5038069;28;20092;-88
2023/03/07 20:37:51;;;;;;;17.63;8.20;;;1.20;99.90;;;;;;5034828;28;20045;-87
2023/03/07 20:40:20;;;;;;;21.85;9.20;;;1.20;99.90;;;;;;5037343;28;20124;-87
2023/03/07 20:42:47;;;;;;;23.95;9.05;;;1.10;99.90;;;;;;5049639;28;20466;-84
2023/03/07 20:45:13;;;;;;;30.98;11.57;;;1.10;99.90;;;;;;5052497;28;20514;-86
2023/03/07 20:47:40;;;;;;;29.13;11.50;;;1.00;99.90;;;;;;5035681;28;20052;-87
2023/03/07 20:50:09;;;;;;;28.10;12.43;;;1.00;99.90;;;;;;5054399;28;20045;-90
2023/03/07 20:52:36;;;;;;;24.35;11.57;;;0.90;99.90;;;;;;5053831;28;20049;-89
2023/03/07 20:55:03;;;;;;;28.52;10.98;;;0.90;99.90;;;;;;5036951;28;20544;-89
2023/03/07 20:57:30;;;;;;;31.52;11.00;;;0.90;99.90;;;;;;5038174;28;20087;-90
2023/03/07 21:02:42;;;;;;;28.60;10.63;;;0.90;99.90;;;;;;5056470;28;20049;-88
2023/03/07 21:05:13;;;;;;;27.83;11.45;;;0.80;99.90;;;;;;5034561;28;20045;-87
2023/03/07 21:07:40;;;;;;;29.63;12.00;;;0.80;99.90;;;;;;5017788;28;20049;-88
2023/03/07 21:13:11;;;;;;;27.63;11.40;;;0.80;99.90;;;;;;5034490;28;20033;-86
2023/03/07 21:15:41;;;;;;;27.33;11.73;;;0.70;99.90;;;;;;5017162;28;20365;-86
2023/03/07 21:18:11;;;;;;;26.73;11.93;;;0.60;99.90;;;;;;5034601;28;20045;-87
2023/03/07 21:20:38;;;;;;;25.75;10.18;;;0.70;99.90;;;;;;5017945;28;20037;-88
2023/03/07 21:23:05;;;;;;;29.42;10.98;;;0.70;99.90;;;;;;5019101;28;20073;-85
2023/03/07 21:25:32;;;;;;;21.90;9.98;;;0.70;99.90;;;;;;5020905;28;20099;-87
2023/03/07 21:30:45;;;;;;;25.67;10.75;;;0.80;99.90;;;;;;5038413;28;20041;-88
2023/03/07 21:33:15;;;;;;;25.55;10.52;;;0.80;99.90;;;;;;5021566;28;20143;-87
2023/03/07 21:35:41;;;;;;;23.67;10.98;;;0.80;99.90;;;;;;5019175;28;20045;-86
2023/03/07 21:38:09;;;;;;;26.30;10.90;;;0.80;99.90;;;;;;5020725;28;20091;-89
2023/03/07 21:40:35;;;;;;;23.60;10.30;;;0.90;99.90;;;;;;5020746;28;20132;-87
2023/03/07 21:43:02;;;;;;;27.13;10.25;;;0.90;99.90;;;;;;5020260;28;20065;-88
2023/03/07 21:45:29;;;;;;;23.45;10.07;;;0.90;99.90;;;;;;5020585;28;20458;-89
2023/03/07 21:47:56;;;;;;;29.85;11.10;;;0.90;99.90;;;;;;5020473;28;20107;-86
2023/03/07 21:50:23;;;;;;;22.65;9.60;;;1.00;99.90;;;;;;5020504;28;20111;-87
2023/03/07 21:52:50;;;;;;;22.30;9.88;;;1.00;99.90;;;;;;5036589;28;20452;-87
2023/03/07 21:55:16;;;;;;;25.15;10.75;;;1.00;99.90;;;;;;5036075;28;20107;-87
2023/03/07 21:57:43;;;;;;;23.70;10.90;;;1.00;99.90;;;;;;5020013;28;20549;-87
2023/03/07 22:03:19;;;;;;;29.05;11.63;;;1.10;99.90;;;;;;5037389;28;20037;-88
2023/03/07 22:05:46;;;;;;;29.27;12.45;;;1.10;99.90;;;;;;5020226;28;20037;-89
2023/03/07 22:08:16;;;;;;;28.63;12.05;;;1.20;99.90;;;;;;5019668;28;20060;-86
2023/03/07 22:10:42;;;;;;;30.58;11.57;;;1.20;99.90;;;;;;5036041;28;20041;-86
2023/03/07 22:13:09;;;;;;;27.77;11.95;;;1.20;99.90;;;;;;5031631;28;20057;-86
2023/03/07 22:15:36;;;;;;;26.45;11.15;;;1.20;99.90;;;;;;5034816;28;20052;-85
2023/03/07 22:20:32;;;;;;;28.00;11.43;;;1.20;99.90;;;;;;5049496;28;20052;-83
2023/03/07 22:22:59;;;;;;;27.38;11.48;;;1.20;99.90;;;;;;5038852;28;20045;-88
2023/03/07 22:25:26;;;;;;;25.35;10.63;;;1.20;99.90;;;;;;5039472;28;20045;-87
2023/03/07 22:27:52;;;;;;;25.17;10.30;;;1.20;99.90;;;;;;5038879;28;20398;-87
2023/03/07 22:32:50;;;;;;;25.63;10.63;;;1.20;99.90;;;;;;5056977;28;20055;-83
2023/03/07 22:35:16;;;;;;;27.13;11.20;;;1.20;99.90;;;;;;5054843;28;22056;-83
2023/03/07 22:37:43;;;;;;;30.35;12.32;;;1.20;99.90;;;;;;5038861;28;20055;-82
2023/03/07 22:40:11;;;;;;;28.23;11.32;;;1.20;99.90;;;;;;5055327;28;20048;-81
2023/03/07 22:42:38;;;;;;;28.13;10.98;;;1.20;99.90;;;;;;5055730;28;20045;-81
2023/03/07 22:45:04;;;;;;;26.17;11.32;;;1.20;99.90;;;;;;5056169;28;20037;-82
2023/03/07 22:47:31;;;;;;;27.15;10.65;;;1.20;99.90;;;;;;5055086;28;20053;-82
2023/03/07 22:49:59;;;;;;;21.85;9.80;;;1.20;99.90;;;;;;5055064;28;20455;-81
2023/03/07 22:52:25;;;;;;;25.38;9.95;;;1.10;99.90;;;;;;5055496;28;20053;-82
2023/03/07 22:54:52;;;;;;;27.95;11.65;;;1.10;99.90;;;;;;5037864;28;20045;-81
2023/03/07 22:57:19;;;;;;;29.20;12.35;;;1.10;99.90;;;;;;5055214;28;20416;-82
2023/03/07 23:02:32;;;;;;;28.00;10.77;;;1.10;99.90;;;;;;5055296;28;20408;-82
2023/03/07 23:04:58;;;;;;;24.75;11.52;;;1.10;99.90;;;;;;5055172;28;20045;-82
2023/03/07 23:07:25;;;;;;;25.48;10.77;;;1.20;99.90;;;;;;5038378;28;20107;-82
2023/03/07 23:12:38;;;;;;;26.55;10.98;;;1.20;99.90;;;;;;5054907;28;20148;-82
2023/03/07 23:15:05;;;;;;;27.52;11.20;;;1.20;99.90;;;;;;5034667;28;20045;-82
2023/03/07 23:17:32;;;;;;;28.42;12.00;;;1.20;99.90;;;;;;5018562;28;20045;-82
2023/03/07 23:22:45;;;;;;;30.23;11.88;;;1.20;99.90;;;;;;5035002;28;20482;-82
2023/03/07 23:25:12;;;;;;;30.20;13.07;;;1.20;99.90;;;;;;5034750;28;20068;-82
2023/03/07 23:27:39;;;;;;;28.38;11.68;;;1.20;99.90;;;;;;5033935;28;20068;-81
2023/03/07 23:32:52;;;;;;;30.50;12.18;;;1.20;99.90;;;;;;5034628;28;20132;-82
2023/03/07 23:35:19;;;;;;;30.60;12.68;;;1.20;99.90;;;;;;5017836;28;20058;-81
2023/03/07 23:37:45;;;;;;;26.73;12.15;;;1.20;99.90;;;;;;5018089;28;20042;-82
2023/03/07 23:40:13;;;;;;;27.55;11.75;;;1.20;99.90;;;;;;5050874;28;20041;-81
2023/03/07 23:42:40;;;;;;;32.72;12.60;;;1.20;99.90;;;;;;5033944;28;20034;-81
2023/03/07 23:45:06;;;;;;;30.00;12.85;;;1.20;99.90;;;;;;5034092;28;20043;-81
2023/03/07 23:47:33;;;;;;;33.33;14.32;;;1.20;99.90;;;;;;5033570;28;20153;-82
2023/03/07 23:50:00;;;;;;;36.55;14.55;;;1.20;99.90;;;;;;5034251;28;20049;-82
2023/03/07 23:52:26;;;;;;;33.60;14.70;;;1.20;99.90;;;;;;5034585;28;20041;-81
2023/03/07 23:54:53;;;;;;;34.08;13.77;;;1.20;99.90;;;;;;5033497;28;20053;-82
2023/03/07 23:57:20;;;;;;;33.13;13.43;;;1.20;99.90;;;;;;5034090;28;20482;-82
2023/03/07 23:59:47;;;;;;;32.65;13.55;;;1.30;99.90;;;;;;5017521;28;20038;-82
